createdAt,value
2023-05-18T04:04:47.515Z,2.80
2023-05-18T04:07:22.013Z,2.35
2023-05-18T04:09:49.704Z,2.58
2023-05-18T04:12:16.724Z,2.50
2023-05-18T04:14:43.911Z,2.90
2023-05-18T04:17:10.885Z,2.65
2023-05-18T04:19:38.443Z,3.03
2023-05-18T04:22:08.827Z,2.90
2023-05-18T04:24:37.442Z,3.00
2023-05-18T04:27:04.642Z,2.40
2023-05-18T04:29:33.942Z,2.58
2023-05-18T04:32:01.228Z,2.08
2023-05-18T04:34:29.697Z,2.17
2023-05-18T04:36:58.876Z,1.63
2023-05-18T04:39:26.237Z,1.65
2023-05-18T04:41:58.574Z,1.42
2023-05-18T04:44:27.953Z,1.60
2023-05-18T04:46:57.208Z,1.52
2023-05-18T04:49:26.260Z,1.65
2023-05-18T04:51:59.535Z,1.42
2023-05-18T14:35:46.452Z,0.40
2023-05-18T14:38:13.262Z,0.68
2023-05-18T14:40:40.440Z,0.30
2023-05-18T14:43:07.348Z,0.20
2023-05-18T14:45:34.250Z,0.30
2023-05-18T14:48:01.169Z,0.30
2023-05-18T14:50:28.243Z,0.40
2023-05-18T14:52:55.222Z,0.20
2023-05-18T14:55:22.196Z,0.30
2023-05-18T14:57:49.090Z,0.20
2023-05-18T15:00:16.553Z,0.25
2023-05-18T15:02:43.630Z,0.20
2023-05-18T15:05:11.310Z,0.22
2023-05-18T15:07:38.174Z,0.43
2023-05-18T15:10:06.948Z,0.20
2023-05-18T15:12:33.945Z,0.25
2023-05-18T15:15:01.204Z,0.20
2023-05-18T15:17:28.092Z,0.20
2023-05-18T15:19:55.068Z,0.32
2023-05-18T15:22:23.391Z,0.30
2023-05-18T15:24:50.347Z,0.30
2023-05-18T15:27:17.870Z,0.20
2023-05-18T15:29:44.772Z,0.20
2023-05-18T15:32:11.671Z,0.30
2023-05-18T15:34:38.673Z,0.30
2023-05-18T15:37:05.511Z,0.30
2023-05-18T15:39:32.376Z,0.20
2023-05-18T15:41:59.264Z,0.20
2023-05-18T15:44:28.695Z,0.20
2023-05-18T15:46:56.443Z,0.13
2023-05-18T15:49:25.428Z,0.20
2023-05-18T15:51:58.149Z,0.30
2023-05-18T15:54:25.062Z,0.20
2023-05-18T15:56:52.386Z,0.20
2023-05-18T15:59:19.201Z,0.38
2023-05-18T16:01:46.389Z,0.20
2023-05-18T16:04:14.148Z,0.25
2023-05-18T16:06:41.596Z,0.15
2023-05-18T16:09:08.568Z,0.20
2023-05-18T16:11:38.410Z,0.13
2023-05-18T16:14:05.498Z,0.20
2023-05-18T16:17:09.517Z,0.20
2023-05-18T16:19:36.608Z,0.20
2023-05-18T16:22:03.474Z,0.20
2023-05-18T16:24:30.462Z,0.20
2023-05-18T16:26:57.372Z,0.20
2023-05-18T16:29:24.362Z,0.28
2023-05-18T16:31:52.208Z,0.28
2023-05-18T16:34:19.508Z,0.30
2023-05-18T16:36:46.744Z,0.30
2023-05-18T16:39:13.629Z,0.30
2023-05-18T16:41:40.574Z,0.20
2023-05-18T16:44:07.461Z,0.30
2023-05-18T16:46:34.479Z,0.22
2023-05-18T16:49:01.485Z,0.20
2023-05-18T16:51:28.550Z,0.32
2023-05-18T16:53:55.662Z,0.20
2023-05-18T16:56:22.823Z,0.30
2023-05-18T16:58:53.810Z,0.43
2023-05-18T17:01:27.986Z,0.40
2023-05-18T17:03:56.236Z,1.35
2023-05-18T17:06:23.226Z,0.30
2023-05-18T17:08:57.651Z,0.38
2023-05-18T17:11:26.847Z,0.20
2023-05-18T17:13:54.481Z,0.17
2023-05-18T17:16:22.298Z,0.40
2023-05-18T17:18:49.819Z,0.40
2023-05-18T17:21:16.908Z,0.50
2023-05-18T17:23:43.857Z,0.15
2023-05-18T17:26:10.683Z,0.30
2023-05-18T17:28:37.655Z,0.30
2023-05-18T17:31:04.793Z,0.25
2023-05-18T17:33:32.067Z,0.30
2023-05-18T17:35:58.914Z,0.40
2023-05-18T17:38:26.855Z,0.30
2023-05-18T17:40:53.692Z,0.30
2023-05-18T17:43:20.757Z,0.47
2023-05-18T17:45:47.701Z,0.80
2023-05-18T17:48:14.772Z,4.65
2023-05-18T17:50:42.418Z,6.18
2023-05-18T17:53:09.277Z,1.00
2023-05-18T17:55:36.181Z,0.73
2023-05-18T17:58:03.717Z,1.83
2023-05-18T18:00:31.045Z,0.60
2023-05-18T18:02:58.272Z,0.50
2023-05-18T18:05:25.476Z,0.65
2023-05-18T18:07:52.517Z,0.40
2023-05-18T18:10:19.637Z,0.55
2023-05-18T18:12:46.516Z,0.77
2023-05-18T18:15:13.560Z,0.73
2023-05-18T18:17:40.589Z,1.30
2023-05-18T18:20:09.680Z,2.03
2023-05-18T18:22:36.531Z,2.45
2023-05-18T18:25:03.503Z,2.33
2023-05-18T18:27:30.997Z,1.40
2023-05-18T18:29:57.843Z,1.00
2023-05-18T18:32:24.798Z,2.08
2023-05-18T18:34:51.911Z,2.67
2023-05-18T18:37:18.770Z,1.10
2023-05-18T18:39:46.375Z,0.85
2023-05-18T18:42:14.217Z,0.60
2023-05-18T18:44:42.576Z,0.73
2023-05-18T18:47:09.527Z,0.70
2023-05-18T18:49:36.515Z,0.85
2023-05-18T18:52:04.059Z,1.10
2023-05-18T18:54:31.051Z,1.50
2023-05-18T18:56:58.132Z,3.03
2023-05-18T18:59:25.155Z,1.98
2023-05-18T19:01:52.020Z,2.00
2023-05-18T19:04:20.960Z,2.60
2023-05-18T19:06:49.028Z,1.90
2023-05-18T19:09:16.090Z,2.65
2023-05-18T19:11:43.091Z,1.80
2023-05-18T19:14:09.815Z,1.15
2023-05-18T19:16:36.989Z,1.20
2023-05-18T19:19:08.650Z,0.85
2023-05-18T19:21:38.724Z,1.13
2023-05-18T19:24:07.281Z,0.77
2023-05-18T19:26:34.789Z,0.90
2023-05-18T19:29:01.598Z,0.85
2023-05-18T19:31:31.675Z,1.20
2023-05-18T19:34:01.601Z,0.73
2023-05-18T19:36:28.492Z,1.42
2023-05-18T19:38:56.340Z,0.82
2023-05-18T19:41:24.806Z,1.50
2023-05-18T19:50:03.830Z,1.50
2023-05-18T19:52:34.461Z,1.48
2023-05-18T19:55:02.599Z,1.50
2023-05-18T19:57:30.215Z,1.38
2023-05-18T19:59:58.277Z,1.27
2023-05-18T20:02:27.691Z,1.38
2023-05-18T20:04:57.852Z,1.60
2023-05-18T20:07:25.691Z,1.38
2023-05-18T20:09:55.238Z,1.75
2023-05-18T20:12:23.787Z,1.88
2023-05-18T20:14:51.911Z,1.50
2023-05-18T20:17:24.052Z,2.60
2023-05-18T20:19:52.122Z,2.10
2023-05-18T20:22:19.673Z,2.33
2023-05-18T20:24:46.647Z,2.60
2023-05-18T20:27:16.154Z,3.40
2023-05-18T20:29:43.488Z,3.40
2023-05-18T20:32:10.847Z,3.70
2023-05-18T20:34:38.877Z,3.70
2023-05-18T20:37:09.153Z,4.20
2023-05-18T20:39:37.653Z,3.78
2023-05-18T20:42:06.719Z,3.50
2023-05-18T20:44:35.070Z,4.32
2023-05-18T20:47:02.634Z,4.00
2023-05-18T20:49:31.708Z,4.45
2023-05-18T20:52:08.114Z,5.13
2023-05-18T20:54:35.026Z,4.45
2023-05-18T20:57:01.900Z,3.92
2023-05-18T20:59:29.651Z,3.50
2023-05-18T21:01:56.820Z,3.35
2023-05-18T21:04:24.192Z,2.70
2023-05-18T21:06:51.150Z,2.45
2023-05-18T21:09:18.720Z,3.05
2023-05-18T21:11:45.769Z,2.60
2023-05-18T21:14:12.571Z,1.98
2023-05-18T21:16:39.488Z,2.13
2023-05-18T21:19:06.401Z,2.03
2023-05-18T21:21:33.281Z,2.13
2023-05-18T21:24:01.153Z,2.17
2023-05-18T21:26:28.255Z,2.17
2023-05-18T21:28:55.058Z,2.00
2023-05-18T21:31:21.944Z,2.08
2023-05-18T21:33:48.823Z,2.03
2023-05-18T21:36:16.046Z,2.30
2023-05-18T21:38:43.081Z,4.07
2023-05-18T21:41:10.226Z,5.53
2023-05-18T21:43:37.015Z,5.78
2023-05-18T21:46:04.015Z,5.45
2023-05-18T21:48:30.818Z,6.22
2023-05-18T21:50:57.657Z,5.57
2023-05-18T21:53:29.558Z,5.47
2023-05-18T21:58:24.596Z,4.32
2023-05-18T22:00:56.495Z,5.00
2023-05-18T22:03:25.015Z,5.00
2023-05-18T22:05:53.244Z,5.63
2023-05-18T22:08:20.168Z,5.32
2023-05-18T22:10:47.052Z,5.25
2023-05-18T22:13:13.906Z,5.68
2023-05-18T22:15:40.968Z,5.75
2023-05-18T22:18:07.864Z,6.47
2023-05-18T22:20:35.126Z,6.65
2023-05-18T22:23:03.378Z,6.90
2023-05-18T22:25:31.261Z,6.35
2023-05-18T22:27:58.106Z,6.75
2023-05-18T22:30:25.061Z,6.65
2023-05-18T22:32:52.018Z,6.32
2023-05-18T22:35:18.873Z,6.57
2023-05-18T22:37:46.290Z,6.30
2023-05-18T22:40:17.742Z,6.40
2023-05-18T22:42:44.524Z,6.20
2023-05-18T22:45:12.461Z,7.25
2023-05-18T22:47:40.136Z,6.43
2023-05-18T22:50:08.752Z,6.57
2023-05-18T22:52:36.763Z,5.90
2023-05-18T22:55:05.512Z,6.18
2023-05-18T22:57:32.473Z,6.28
2023-05-18T22:59:59.309Z,6.63
2023-05-18T23:02:26.852Z,5.88
2023-05-18T23:04:53.857Z,6.30
2023-05-18T23:07:22.068Z,6.20
2023-05-18T23:09:49.220Z,6.30
2023-05-18T23:12:16.455Z,6.22
2023-05-18T23:14:44.694Z,5.60
2023-05-18T23:17:12.537Z,6.20
2023-05-18T23:19:39.346Z,6.35
2023-05-18T23:22:06.235Z,5.85
2023-05-18T23:24:33.400Z,5.90
2023-05-18T23:27:00.320Z,6.03
2023-05-18T23:29:27.208Z,6.40
2023-05-18T23:31:54.267Z,6.07
2023-05-18T23:34:21.297Z,5.78
2023-05-18T23:36:53.398Z,6.30
2023-05-18T23:39:22.310Z,6.13
2023-05-18T23:41:49.151Z,6.18
2023-05-18T23:44:16.256Z,5.78
2023-05-18T23:46:43.427Z,5.75
2023-05-18T23:49:10.719Z,5.90
2023-05-18T23:51:37.989Z,5.47
2023-05-18T23:54:07.400Z,5.20
2023-05-18T23:56:34.671Z,6.22
2023-05-18T23:59:02.605Z,6.25
